sensor_id;sensor_type;location;lat;lon;timestamp;P1;durP1;ratioP1;P2;durP2;ratioP2
7985;SDS011;4038;42.612;23.066;2022-09-09T00:00:30;32.45;;;29.92;;
7985;SDS011;4038;42.612;23.066;2022-09-09T00:03:22;32.17;;;29.70;;
7985;SDS011;4038;42.612;23.066;2022-09-09T00:08:37;31.60;;;29.13;;
7985;SDS011;4038;42.612;23.066;2022-09-09T00:11:23;30.33;;;28.08;;
7985;SDS011;4038;42.612;23.066;2022-09-09T00:13:52;31.77;;;29.15;;
7985;SDS011;4038;42.612;23.066;2022-09-09T00:16:22;31.98;;;29.33;;
7985;SDS011;4038;42.612;23.066;2022-09-09T00:21:35;32.58;;;30.00;;
7985;SDS011;4038;42.612;23.066;2022-09-09T00:24:24;31.23;;;29.02;;
7985;SDS011;4038;42.612;23.066;2022-09-09T00:27:08;31.75;;;29.35;;
7985;SDS011;4038;42.612;23.066;2022-09-09T00:29:47;30.92;;;28.60;;
7985;SDS011;4038;42.612;23.066;2022-09-09T00:32:34;30.70;;;28.40;;
7985;SDS011;4038;42.612;23.066;2022-09-09T00:37:53;29.55;;;27.15;;
7985;SDS011;4038;42.612;23.066;2022-09-09T00:40:23;29.70;;;27.50;;
7985;SDS011;4038;42.612;23.066;2022-09-09T00:42:54;30.23;;;27.90;;
7985;SDS011;4038;42.612;23.066;2022-09-09T00:51:36;30.40;;;28.10;;
7985;SDS011;4038;42.612;23.066;2022-09-09T00:57:03;28.58;;;26.67;;
7985;SDS011;4038;42.612;23.066;2022-09-09T00:59:48;29.15;;;27.25;;
7985;SDS011;4038;42.612;23.066;2022-09-09T01:02:42;28.90;;;26.90;;
7985;SDS011;4038;42.612;23.066;2022-09-09T01:08:34;30.52;;;28.23;;
7985;SDS011;4038;42.612;23.066;2022-09-09T01:11:32;32.90;;;30.40;;
7985;SDS011;4038;42.612;23.066;2022-09-09T01:14:19;30.20;;;28.05;;
7985;SDS011;4038;42.612;23.066;2022-09-09T01:16:56;30.75;;;28.50;;
7985;SDS011;4038;42.612;23.066;2022-09-09T01:28:17;32.75;;;30.25;;
7985;SDS011;4038;42.612;23.066;2022-09-09T01:30:47;33.47;;;30.88;;
7985;SDS011;4038;42.612;23.066;2022-09-09T01:33:14;33.40;;;30.90;;
7985;SDS011;4038;42.612;23.066;2022-09-09T01:35:46;33.28;;;30.63;;
7985;SDS011;4038;42.612;23.066;2022-09-09T01:38:19;33.65;;;31.10;;
7985;SDS011;4038;42.612;23.066;2022-09-09T01:40:46;32.70;;;30.23;;
7985;SDS011;4038;42.612;23.066;2022-09-09T01:43:12;31.83;;;29.30;;
7985;SDS011;4038;42.612;23.066;2022-09-09T01:45:38;31.92;;;29.70;;
7985;SDS011;4038;42.612;23.066;2022-09-09T01:48:05;33.00;;;30.23;;
7985;SDS011;4038;42.612;23.066;2022-09-09T01:50:31;32.50;;;29.95;;
7985;SDS011;4038;42.612;23.066;2022-09-09T01:52:57;31.73;;;29.05;;
7985;SDS011;4038;42.612;23.066;2022-09-09T01:55:36;32.30;;;29.60;;
7985;SDS011;4038;42.612;23.066;2022-09-09T02:00:55;31.25;;;29.02;;
7985;SDS011;4038;42.612;23.066;2022-09-09T02:03:27;32.97;;;30.38;;
7985;SDS011;4038;42.612;23.066;2022-09-09T02:08:42;32.22;;;29.70;;
7985;SDS011;4038;42.612;23.066;2022-09-09T02:11:21;32.78;;;30.05;;
7985;SDS011;4038;42.612;23.066;2022-09-09T02:13:49;33.40;;;30.70;;
7985;SDS011;4038;42.612;23.066;2022-09-09T02:16:21;32.67;;;29.88;;
7985;SDS011;4038;42.612;23.066;2022-09-09T02:18:53;32.53;;;29.85;;
7985;SDS011;4038;42.612;23.066;2022-09-09T02:21:26;31.77;;;28.88;;
7985;SDS011;4038;42.612;23.066;2022-09-09T02:23:54;31.45;;;29.25;;
7985;SDS011;4038;42.612;23.066;2022-09-09T02:26:23;32.53;;;30.10;;
7985;SDS011;4038;42.612;23.066;2022-09-09T02:28:51;31.90;;;29.50;;
7985;SDS011;4038;42.612;23.066;2022-09-09T02:31:20;31.52;;;29.13;;
7985;SDS011;4038;42.612;23.066;2022-09-09T02:33:50;32.67;;;30.20;;
7985;SDS011;4038;42.612;23.066;2022-09-09T02:36:20;32.15;;;29.52;;
7985;SDS011;4038;42.612;23.066;2022-09-09T02:38:49;31.38;;;28.83;;
7985;SDS011;4038;42.612;23.066;2022-09-09T02:41:22;31.35;;;29.00;;
7985;SDS011;4038;42.612;23.066;2022-09-09T02:43:53;32.60;;;30.20;;
7985;SDS011;4038;42.612;23.066;2022-09-09T02:57:19;31.83;;;29.33;;
7985;SDS011;4038;42.612;23.066;2022-09-09T02:59:49;31.55;;;28.85;;
7985;SDS011;4038;42.612;23.066;2022-09-09T03:02:15;29.73;;;27.17;;
7985;SDS011;4038;42.612;23.066;2022-09-09T03:04:40;31.45;;;28.95;;
7985;SDS011;4038;42.612;23.066;2022-09-09T03:07:09;30.42;;;28.23;;
7985;SDS011;4038;42.612;23.066;2022-09-09T03:09:35;30.98;;;28.48;;
7985;SDS011;4038;42.612;23.066;2022-09-09T03:12:00;33.17;;;30.00;;
7985;SDS011;4038;42.612;23.066;2022-09-09T03:14:26;31.25;;;28.75;;
7985;SDS011;4038;42.612;23.066;2022-09-09T03:16:52;31.85;;;29.50;;
7985;SDS011;4038;42.612;23.066;2022-09-09T03:19:18;32.50;;;29.25;;
7985;SDS011;4038;42.612;23.066;2022-09-09T03:21:44;31.65;;;29.10;;
7985;SDS011;4038;42.612;23.066;2022-09-09T03:24:10;30.83;;;28.48;;
7985;SDS011;4038;42.612;23.066;2022-09-09T03:26:36;31.50;;;28.90;;
7985;SDS011;4038;42.612;23.066;2022-09-09T03:29:02;32.38;;;29.70;;
7985;SDS011;4038;42.612;23.066;2022-09-09T03:31:31;32.00;;;29.38;;
7985;SDS011;4038;42.612;23.066;2022-09-09T03:33:57;31.20;;;28.88;;
7985;SDS011;4038;42.612;23.066;2022-09-09T03:36:23;33.00;;;30.30;;
7985;SDS011;4038;42.612;23.066;2022-09-09T03:38:51;33.05;;;30.40;;
7985;SDS011;4038;42.612;23.066;2022-09-09T03:41:16;33.95;;;31.08;;
7985;SDS011;4038;42.612;23.066;2022-09-09T03:43:43;32.58;;;30.15;;
7985;SDS011;4038;42.612;23.066;2022-09-09T03:46:08;33.58;;;31.00;;
7985;SDS011;4038;42.612;23.066;2022-09-09T03:48:34;32.50;;;29.77;;
7985;SDS011;4038;42.612;23.066;2022-09-09T03:50:59;31.42;;;29.08;;
7985;SDS011;4038;42.612;23.066;2022-09-09T03:53:26;32.70;;;30.02;;
7985;SDS011;4038;42.612;23.066;2022-09-09T03:55:53;32.33;;;29.70;;
7985;SDS011;4038;42.612;23.066;2022-09-09T03:58:21;31.15;;;28.55;;
7985;SDS011;4038;42.612;23.066;2022-09-09T04:00:55;30.73;;;28.23;;
7985;SDS011;4038;42.612;23.066;2022-09-09T04:03:22;29.58;;;27.15;;
7985;SDS011;4038;42.612;23.066;2022-09-09T04:05:49;30.17;;;27.60;;
7985;SDS011;4038;42.612;23.066;2022-09-09T04:08:18;29.73;;;27.42;;
7985;SDS011;4038;42.612;23.066;2022-09-09T04:10:45;28.88;;;26.45;;
7985;SDS011;4038;42.612;23.066;2022-09-09T04:13:11;29.85;;;27.55;;
7985;SDS011;4038;42.612;23.066;2022-09-09T04:15:39;30.17;;;27.67;;
7985;SDS011;4038;42.612;23.066;2022-09-09T04:18:04;28.50;;;26.27;;
7985;SDS011;4038;42.612;23.066;2022-09-09T04:20:30;27.95;;;25.75;;
7985;SDS011;4038;42.612;23.066;2022-09-09T04:22:55;28.63;;;26.52;;
7985;SDS011;4038;42.612;23.066;2022-09-09T04:25:21;28.45;;;26.23;;
7985;SDS011;4038;42.612;23.066;2022-09-09T04:27:46;30.38;;;27.77;;
7985;SDS011;4038;42.612;23.066;2022-09-09T04:30:12;30.10;;;27.75;;
7985;SDS011;4038;42.612;23.066;2022-09-09T04:32:38;30.13;;;27.80;;
7985;SDS011;4038;42.612;23.066;2022-09-09T04:35:03;31.70;;;29.13;;
7985;SDS011;4038;42.612;23.066;2022-09-09T04:37:29;32.00;;;29.50;;
7985;SDS011;4038;42.612;23.066;2022-09-09T04:39:55;32.00;;;29.45;;
7985;SDS011;4038;42.612;23.066;2022-09-09T04:42:20;30.80;;;28.20;;
7985;SDS011;4038;42.612;23.066;2022-09-09T04:44:46;31.35;;;28.48;;
7985;SDS011;4038;42.612;23.066;2022-09-09T04:47:11;31.40;;;28.77;;
7985;SDS011;4038;42.612;23.066;2022-09-09T04:49:37;32.92;;;30.15;;
7985;SDS011;4038;42.612;23.066;2022-09-09T04:52:03;31.60;;;28.85;;
7985;SDS011;4038;42.612;23.066;2022-09-09T04:54:29;31.63;;;28.98;;
7985;SDS011;4038;42.612;23.066;2022-09-09T04:56:54;32.00;;;29.33;;
7985;SDS011;4038;42.612;23.066;2022-09-09T04:59:20;31.52;;;28.73;;
7985;SDS011;4038;42.612;23.066;2022-09-09T05:01:46;33.33;;;30.45;;
7985;SDS011;4038;42.612;23.066;2022-09-09T05:04:12;32.78;;;29.92;;
7985;SDS011;4038;42.612;23.066;2022-09-09T05:06:40;32.80;;;29.80;;
7985;SDS011;4038;42.612;23.066;2022-09-09T05:09:08;32.05;;;28.95;;
7985;SDS011;4038;42.612;23.066;2022-09-09T05:11:34;31.02;;;28.17;;
7985;SDS011;4038;42.612;23.066;2022-09-09T05:14:03;30.85;;;28.52;;
7985;SDS011;4038;42.612;23.066;2022-09-09T05:16:29;30.20;;;27.90;;
7985;SDS011;4038;42.612;23.066;2022-09-09T05:18:55;29.77;;;27.25;;
7985;SDS011;4038;42.612;23.066;2022-09-09T05:21:28;29.88;;;27.58;;
7985;SDS011;4038;42.612;23.066;2022-09-09T05:23:55;28.20;;;26.00;;
7985;SDS011;4038;42.612;23.066;2022-09-09T05:26:21;28.52;;;26.42;;
7985;SDS011;4038;42.612;23.066;2022-09-09T05:28:47;30.63;;;28.33;;
7985;SDS011;4038;42.612;23.066;2022-09-09T05:31:16;30.45;;;28.08;;
7985;SDS011;4038;42.612;23.066;2022-09-09T05:33:43;30.67;;;28.38;;
7985;SDS011;4038;42.612;23.066;2022-09-09T05:36:11;29.40;;;27.10;;
7985;SDS011;4038;42.612;23.066;2022-09-09T05:38:46;30.33;;;27.92;;
7985;SDS011;4038;42.612;23.066;2022-09-09T05:41:16;30.23;;;27.77;;
7985;SDS011;4038;42.612;23.066;2022-09-09T05:43:42;30.08;;;27.58;;
7985;SDS011;4038;42.612;23.066;2022-09-09T05:46:16;29.25;;;27.05;;
7985;SDS011;4038;42.612;23.066;2022-09-09T05:48:44;28.35;;;26.35;;
7985;SDS011;4038;42.612;23.066;2022-09-09T05:51:12;29.67;;;27.40;;
7985;SDS011;4038;42.612;23.066;2022-09-09T05:53:42;29.48;;;27.33;;
7985;SDS011;4038;42.612;23.066;2022-09-09T05:56:14;29.48;;;27.23;;
7985;SDS011;4038;42.612;23.066;2022-09-09T05:58:41;28.83;;;26.63;;
7985;SDS011;4038;42.612;23.066;2022-09-09T06:01:27;28.92;;;26.60;;
7985;SDS011;4038;42.612;23.066;2022-09-09T06:03:57;29.42;;;27.17;;
7985;SDS011;4038;42.612;23.066;2022-09-09T06:06:27;28.15;;;25.95;;
7985;SDS011;4038;42.612;23.066;2022-09-09T06:09:02;28.52;;;26.02;;
7985;SDS011;4038;42.612;23.066;2022-09-09T06:11:31;28.50;;;26.17;;
7985;SDS011;4038;42.612;23.066;2022-09-09T06:13:57;27.88;;;25.42;;
7985;SDS011;4038;42.612;23.066;2022-09-09T06:16:24;28.48;;;26.38;;
7985;SDS011;4038;42.612;23.066;2022-09-09T06:18:55;27.05;;;25.00;;
7985;SDS011;4038;42.612;23.066;2022-09-09T06:23:51;27.08;;;25.08;;
7985;SDS011;4038;42.612;23.066;2022-09-09T06:26:30;27.90;;;25.80;;
7985;SDS011;4038;42.612;23.066;2022-09-09T06:29:00;27.50;;;25.40;;
7985;SDS011;4038;42.612;23.066;2022-09-09T06:31:29;27.13;;;24.95;;
7985;SDS011;4038;42.612;23.066;2022-09-09T06:33:56;27.40;;;25.30;;
7985;SDS011;4038;42.612;23.066;2022-09-09T06:36:24;26.60;;;24.70;;
7985;SDS011;4038;42.612;23.066;2022-09-09T06:38:54;27.02;;;25.02;;
7985;SDS011;4038;42.612;23.066;2022-09-09T06:41:25;26.83;;;24.27;;
7985;SDS011;4038;42.612;23.066;2022-09-09T06:44:00;26.63;;;24.55;;
7985;SDS011;4038;42.612;23.066;2022-09-09T06:46:37;26.92;;;24.65;;
7985;SDS011;4038;42.612;23.066;2022-09-09T06:49:07;26.58;;;24.48;;
7985;SDS011;4038;42.612;23.066;2022-09-09T06:58:08;26.85;;;24.83;;
7985;SDS011;4038;42.612;23.066;2022-09-09T07:00:34;26.95;;;24.75;;
7985;SDS011;4038;42.612;23.066;2022-09-09T07:03:04;26.92;;;24.73;;
7985;SDS011;4038;42.612;23.066;2022-09-09T07:05:33;26.25;;;24.23;;
7985;SDS011;4038;42.612;23.066;2022-09-09T07:08:02;26.05;;;24.15;;
7985;SDS011;4038;42.612;23.066;2022-09-09T07:10:34;26.83;;;24.75;;
7985;SDS011;4038;42.612;23.066;2022-09-09T07:13:06;26.58;;;24.17;;
7985;SDS011;4038;42.612;23.066;2022-09-09T07:15:32;25.77;;;23.95;;
7985;SDS011;4038;42.612;23.066;2022-09-09T07:18:00;27.00;;;24.70;;
7985;SDS011;4038;42.612;23.066;2022-09-09T07:20:27;26.20;;;24.17;;
7985;SDS011;4038;42.612;23.066;2022-09-09T07:23:12;25.63;;;23.52;;
7985;SDS011;4038;42.612;23.066;2022-09-09T07:25:38;26.25;;;24.25;;
7985;SDS011;4038;42.612;23.066;2022-09-09T07:28:10;26.20;;;24.23;;
7985;SDS011;4038;42.612;23.066;2022-09-09T07:30:35;26.10;;;24.20;;
7985;SDS011;4038;42.612;23.066;2022-09-09T07:33:01;26.02;;;24.13;;
7985;SDS011;4038;42.612;23.066;2022-09-09T07:35:28;26.75;;;24.55;;
7985;SDS011;4038;42.612;23.066;2022-09-09T07:38:00;26.05;;;24.05;;
7985;SDS011;4038;42.612;23.066;2022-09-09T07:40:26;25.90;;;23.80;;
7985;SDS011;4038;42.612;23.066;2022-09-09T07:42:52;26.70;;;24.30;;
7985;SDS011;4038;42.612;23.066;2022-09-09T07:45:18;26.52;;;24.45;;
7985;SDS011;4038;42.612;23.066;2022-09-09T07:47:47;27.40;;;25.08;;
7985;SDS011;4038;42.612;23.066;2022-09-09T07:50:16;27.98;;;25.75;;
7985;SDS011;4038;42.612;23.066;2022-09-09T07:52:53;27.45;;;25.05;;
7985;SDS011;4038;42.612;23.066;2022-09-09T07:55:24;26.88;;;24.70;;
7985;SDS011;4038;42.612;23.066;2022-09-09T07:58:08;26.15;;;24.35;;
7985;SDS011;4038;42.612;23.066;2022-09-09T08:00:36;27.00;;;25.02;;
7985;SDS011;4038;42.612;23.066;2022-09-09T08:03:32;26.63;;;24.73;;
7985;SDS011;4038;42.612;23.066;2022-09-09T08:06:02;26.83;;;24.70;;
7985;SDS011;4038;42.612;23.066;2022-09-09T08:08:36;25.65;;;23.77;;
7985;SDS011;4038;42.612;23.066;2022-09-09T08:11:09;26.70;;;24.63;;
7985;SDS011;4038;42.612;23.066;2022-09-09T08:13:41;26.65;;;24.50;;
7985;SDS011;4038;42.612;23.066;2022-09-09T08:16:18;26.95;;;24.95;;
7985;SDS011;4038;42.612;23.066;2022-09-09T08:18:54;26.90;;;25.00;;
7985;SDS011;4038;42.612;23.066;2022-09-09T08:21:31;25.92;;;24.02;;
7985;SDS011;4038;42.612;23.066;2022-09-09T08:24:02;27.48;;;25.52;;
7985;SDS011;4038;42.612;23.066;2022-09-09T08:26:37;26.05;;;24.20;;
7985;SDS011;4038;42.612;23.066;2022-09-09T08:29:07;27.60;;;25.33;;
7985;SDS011;4038;42.612;23.066;2022-09-09T08:31:47;26.67;;;24.77;;
7985;SDS011;4038;42.612;23.066;2022-09-09T08:34:25;27.25;;;25.20;;
7985;SDS011;4038;42.612;23.066;2022-09-09T08:36:55;27.10;;;25.02;;
7985;SDS011;4038;42.612;23.066;2022-09-09T08:39:26;27.08;;;24.83;;
7985;SDS011;4038;42.612;23.066;2022-09-09T08:50:50;26.75;;;24.65;;
7985;SDS011;4038;42.612;23.066;2022-09-09T08:53:27;26.08;;;23.98;;
7985;SDS011;4038;42.612;23.066;2022-09-09T08:56:08;26.45;;;24.33;;
7985;SDS011;4038;42.612;23.066;2022-09-09T08:59:17;28.20;;;25.77;;
7985;SDS011;4038;42.612;23.066;2022-09-09T09:01:50;27.85;;;25.55;;
7985;SDS011;4038;42.612;23.066;2022-09-09T09:10:46;27.52;;;25.58;;
7985;SDS011;4038;42.612;23.066;2022-09-09T09:19:35;27.48;;;25.27;;
7985;SDS011;4038;42.612;23.066;2022-09-09T09:22:31;28.05;;;25.92;;
7985;SDS011;4038;42.612;23.066;2022-09-09T09:25:14;28.25;;;26.13;;
7985;SDS011;4038;42.612;23.066;2022-09-09T09:27:57;28.58;;;26.40;;
7985;SDS011;4038;42.612;23.066;2022-09-09T09:30:35;27.30;;;25.10;;
7985;SDS011;4038;42.612;23.066;2022-09-09T09:33:22;27.88;;;25.58;;
7985;SDS011;4038;42.612;23.066;2022-09-09T09:36:09;27.90;;;25.77;;
7985;SDS011;4038;42.612;23.066;2022-09-09T09:38:50;26.50;;;24.50;;
7985;SDS011;4038;42.612;23.066;2022-09-09T09:41:31;28.17;;;25.98;;
7985;SDS011;4038;42.612;23.066;2022-09-09T09:44:05;27.50;;;25.50;;
7985;SDS011;4038;42.612;23.066;2022-09-09T09:47:15;26.80;;;24.90;;
7985;SDS011;4038;42.612;23.066;2022-09-09T09:49:55;26.67;;;24.65;;
7985;SDS011;4038;42.612;23.066;2022-09-09T09:52:35;28.25;;;26.27;;
7985;SDS011;4038;42.612;23.066;2022-09-09T09:55:12;27.30;;;25.20;;
7985;SDS011;4038;42.612;23.066;2022-09-09T09:57:47;26.63;;;24.75;;
7985;SDS011;4038;42.612;23.066;2022-09-09T10:00:21;28.98;;;26.67;;
7985;SDS011;4038;42.612;23.066;2022-09-09T10:02:51;27.25;;;25.15;;
7985;SDS011;4038;42.612;23.066;2022-09-09T10:05:21;28.33;;;26.33;;
7985;SDS011;4038;42.612;23.066;2022-09-09T10:08:03;27.30;;;25.38;;
7985;SDS011;4038;42.612;23.066;2022-09-09T10:10:48;28.50;;;26.27;;
7985;SDS011;4038;42.612;23.066;2022-09-09T10:23:08;28.45;;;26.35;;
7985;SDS011;4038;42.612;23.066;2022-09-09T10:34:21;28.58;;;26.50;;
7985;SDS011;4038;42.612;23.066;2022-09-09T10:37:22;29.55;;;27.38;;
7985;SDS011;4038;42.612;23.066;2022-09-09T10:39:53;28.88;;;26.88;;
7985;SDS011;4038;42.612;23.066;2022-09-09T10:42:36;28.63;;;26.63;;
7985;SDS011;4038;42.612;23.066;2022-09-09T10:45:36;28.23;;;25.98;;
7985;SDS011;4038;42.612;23.066;2022-09-09T10:57:13;30.02;;;27.52;;
7985;SDS011;4038;42.612;23.066;2022-09-09T10:59:47;29.75;;;27.25;;
7985;SDS011;4038;42.612;23.066;2022-09-09T11:02:17;29.58;;;27.17;;
7985;SDS011;4038;42.612;23.066;2022-09-09T11:04:54;29.60;;;26.95;;
7985;SDS011;4038;42.612;23.066;2022-09-09T11:07:42;28.00;;;25.52;;
7985;SDS011;4038;42.612;23.066;2022-09-09T11:10:18;28.27;;;25.83;;
7985;SDS011;4038;42.612;23.066;2022-09-09T11:13:24;29.70;;;27.00;;
7985;SDS011;4038;42.612;23.066;2022-09-09T11:16:04;28.08;;;26.08;;
7985;SDS011;4038;42.612;23.066;2022-09-09T11:18:40;27.50;;;25.40;;
7985;SDS011;4038;42.612;23.066;2022-09-09T11:21:13;27.30;;;25.30;;
7985;SDS011;4038;42.612;23.066;2022-09-09T11:23:55;29.15;;;26.73;;
7985;SDS011;4038;42.612;23.066;2022-09-09T11:26:47;28.02;;;25.98;;
7985;SDS011;4038;42.612;23.066;2022-09-09T11:29:44;28.58;;;26.27;;
7985;SDS011;4038;42.612;23.066;2022-09-09T11:41:06;27.58;;;25.65;;
7985;SDS011;4038;42.612;23.066;2022-09-09T11:43:47;28.25;;;26.05;;
7985;SDS011;4038;42.612;23.066;2022-09-09T11:46:50;28.02;;;25.90;;
7985;SDS011;4038;42.612;23.066;2022-09-09T11:53:05;28.25;;;26.15;;
7985;SDS011;4038;42.612;23.066;2022-09-09T11:55:45;27.98;;;25.98;;
7985;SDS011;4038;42.612;23.066;2022-09-09T11:58:34;26.75;;;24.85;;
7985;SDS011;4038;42.612;23.066;2022-09-09T12:01:39;27.42;;;25.42;;
7985;SDS011;4038;42.612;23.066;2022-09-09T12:07:33;27.42;;;25.42;;
7985;SDS011;4038;42.612;23.066;2022-09-09T12:13:17;25.55;;;23.77;;
7985;SDS011;4038;42.612;23.066;2022-09-09T12:15:49;27.23;;;25.23;;
7985;SDS011;4038;42.612;23.066;2022-09-09T12:18:21;27.73;;;25.17;;
7985;SDS011;4038;42.612;23.066;2022-09-09T12:24:00;25.02;;;23.23;;
7985;SDS011;4038;42.612;23.066;2022-09-09T12:26:35;26.65;;;24.75;;
7985;SDS011;4038;42.612;23.066;2022-09-09T12:32:10;26.67;;;24.77;;
7985;SDS011;4038;42.612;23.066;2022-09-09T12:34:52;26.77;;;24.77;;
7985;SDS011;4038;42.612;23.066;2022-09-09T12:37:34;28.20;;;26.10;;
7985;SDS011;4038;42.612;23.066;2022-09-09T12:40:04;27.52;;;25.58;;
7985;SDS011;4038;42.612;23.066;2022-09-09T12:42:32;26.77;;;24.88;;
7985;SDS011;4038;42.612;23.066;2022-09-09T12:45:14;28.52;;;26.33;;
7985;SDS011;4038;42.612;23.066;2022-09-09T12:47:45;26.80;;;24.83;;
7985;SDS011;4038;42.612;23.066;2022-09-09T12:50:16;27.05;;;24.90;;
7985;SDS011;4038;42.612;23.066;2022-09-09T12:52:42;27.08;;;24.85;;
7985;SDS011;4038;42.612;23.066;2022-09-09T12:55:16;26.25;;;24.35;;
7985;SDS011;4038;42.612;23.066;2022-09-09T12:57:46;25.63;;;23.83;;
7985;SDS011;4038;42.612;23.066;2022-09-09T13:00:21;26.08;;;24.00;;
7985;SDS011;4038;42.612;23.066;2022-09-09T13:02:52;27.02;;;25.13;;
7985;SDS011;4038;42.612;23.066;2022-09-09T13:05:25;26.73;;;24.70;;
7985;SDS011;4038;42.612;23.066;2022-09-09T13:08:00;26.65;;;24.48;;
7985;SDS011;4038;42.612;23.066;2022-09-09T13:10:33;26.33;;;24.38;;
7985;SDS011;4038;42.612;23.066;2022-09-09T13:13:04;26.50;;;24.52;;
7985;SDS011;4038;42.612;23.066;2022-09-09T13:15:47;26.17;;;24.25;;
7985;SDS011;4038;42.612;23.066;2022-09-09T13:18:15;26.27;;;24.30;;
7985;SDS011;4038;42.612;23.066;2022-09-09T13:20:56;25.00;;;23.23;;
7985;SDS011;4038;42.612;23.066;2022-09-09T13:23:25;25.70;;;23.85;;
7985;SDS011;4038;42.612;23.066;2022-09-09T13:25:57;28.05;;;25.85;;
7985;SDS011;4038;42.612;23.066;2022-09-09T13:28:29;26.55;;;24.55;;
7985;SDS011;4038;42.612;23.066;2022-09-09T13:31:06;26.08;;;24.25;;
7985;SDS011;4038;42.612;23.066;2022-09-09T13:33:54;24.95;;;23.05;;
7985;SDS011;4038;42.612;23.066;2022-09-09T13:36:30;25.80;;;23.90;;
7985;SDS011;4038;42.612;23.066;2022-09-09T13:38:58;25.67;;;23.77;;
7985;SDS011;4038;42.612;23.066;2022-09-09T13:41:31;25.90;;;23.92;;
7985;SDS011;4038;42.612;23.066;2022-09-09T13:44:00;25.58;;;23.67;;
7985;SDS011;4038;42.612;23.066;2022-09-09T13:46:36;26.38;;;24.48;;
7985;SDS011;4038;42.612;23.066;2022-09-09T13:54:13;25.80;;;23.95;;
7985;SDS011;4038;42.612;23.066;2022-09-09T13:56:43;26.23;;;24.30;;
7985;SDS011;4038;42.612;23.066;2022-09-09T13:59:13;25.50;;;23.70;;
7985;SDS011;4038;42.612;23.066;2022-09-09T14:01:40;25.17;;;23.45;;
7985;SDS011;4038;42.612;23.066;2022-09-09T14:04:07;25.40;;;23.60;;
7985;SDS011;4038;42.612;23.066;2022-09-09T14:06:34;25.13;;;23.33;;
7985;SDS011;4038;42.612;23.066;2022-09-09T14:09:03;26.33;;;24.38;;
7985;SDS011;4038;42.612;23.066;2022-09-09T14:11:30;26.58;;;24.67;;
7985;SDS011;4038;42.612;23.066;2022-09-09T14:13:55;26.35;;;24.45;;
7985;SDS011;4038;42.612;23.066;2022-09-09T14:16:29;27.10;;;25.05;;
7985;SDS011;4038;42.612;23.066;2022-09-09T14:19:03;27.08;;;25.13;;
7985;SDS011;4038;42.612;23.066;2022-09-09T14:21:32;27.80;;;25.90;;
7985;SDS011;4038;42.612;23.066;2022-09-09T14:24:01;25.65;;;23.85;;
7985;SDS011;4038;42.612;23.066;2022-09-09T14:26:27;27.80;;;25.80;;
7985;SDS011;4038;42.612;23.066;2022-09-09T14:28:57;27.17;;;24.88;;
7985;SDS011;4038;42.612;23.066;2022-09-09T14:31:29;27.20;;;24.98;;
7985;SDS011;4038;42.612;23.066;2022-09-09T14:34:01;28.05;;;25.85;;
7985;SDS011;4038;42.612;23.066;2022-09-09T14:36:31;27.20;;;25.23;;
7985;SDS011;4038;42.612;23.066;2022-09-09T14:38:57;26.83;;;24.83;;
7985;SDS011;4038;42.612;23.066;2022-09-09T14:41:23;26.95;;;24.85;;
7985;SDS011;4038;42.612;23.066;2022-09-09T14:43:50;26.70;;;24.80;;
7985;SDS011;4038;42.612;23.066;2022-09-09T14:46:19;26.63;;;24.63;;
7985;SDS011;4038;42.612;23.066;2022-09-09T14:48:46;27.13;;;25.13;;
7985;SDS011;4038;42.612;23.066;2022-09-09T14:51:18;26.77;;;24.88;;
7985;SDS011;4038;42.612;23.066;2022-09-09T14:53:52;26.58;;;24.75;;
7985;SDS011;4038;42.612;23.066;2022-09-09T14:56:23;26.55;;;24.42;;
7985;SDS011;4038;42.612;23.066;2022-09-09T14:58:58;26.38;;;24.45;;
7985;SDS011;4038;42.612;23.066;2022-09-09T15:01:30;26.08;;;24.27;;
7985;SDS011;4038;42.612;23.066;2022-09-09T15:04:07;26.92;;;24.77;;
7985;SDS011;4038;42.612;23.066;2022-09-09T15:06:37;26.02;;;24.13;;
7985;SDS011;4038;42.612;23.066;2022-09-09T15:09:08;26.05;;;24.05;;
7985;SDS011;4038;42.612;23.066;2022-09-09T15:11:35;26.38;;;24.30;;
7985;SDS011;4038;42.612;23.066;2022-09-09T15:14:05;26.42;;;24.52;;
7985;SDS011;4038;42.612;23.066;2022-09-09T15:16:33;26.65;;;24.65;;
7985;SDS011;4038;42.612;23.066;2022-09-09T15:19:00;26.05;;;24.15;;
7985;SDS011;4038;42.612;23.066;2022-09-09T15:21:30;25.92;;;24.10;;
7985;SDS011;4038;42.612;23.066;2022-09-09T15:24:00;25.17;;;23.38;;
7985;SDS011;4038;42.612;23.066;2022-09-09T15:26:29;25.45;;;23.65;;
7985;SDS011;4038;42.612;23.066;2022-09-09T15:28:55;26.85;;;25.05;;
7985;SDS011;4038;42.612;23.066;2022-09-09T15:31:26;26.30;;;24.60;;
7985;SDS011;4038;42.612;23.066;2022-09-09T15:33:58;26.80;;;24.73;;
7985;SDS011;4038;42.612;23.066;2022-09-09T15:36:30;26.98;;;25.05;;
7985;SDS011;4038;42.612;23.066;2022-09-09T15:38:59;28.10;;;26.00;;
7985;SDS011;4038;42.612;23.066;2022-09-09T15:41:29;27.55;;;25.48;;
7985;SDS011;4038;42.612;23.066;2022-09-09T15:44:05;28.90;;;26.50;;
7985;SDS011;4038;42.612;23.066;2022-09-09T15:46:36;27.40;;;25.40;;
7985;SDS011;4038;42.612;23.066;2022-09-09T15:49:16;27.48;;;25.58;;
7985;SDS011;4038;42.612;23.066;2022-09-09T15:51:54;27.55;;;25.52;;
7985;SDS011;4038;42.612;23.066;2022-09-09T15:54:30;28.45;;;26.13;;
7985;SDS011;4038;42.612;23.066;2022-09-09T15:57:01;28.08;;;25.58;;
7985;SDS011;4038;42.612;23.066;2022-09-09T15:59:32;26.65;;;24.65;;
7985;SDS011;4038;42.612;23.066;2022-09-09T16:02:01;27.52;;;25.48;;
7985;SDS011;4038;42.612;23.066;2022-09-09T16:04:28;28.63;;;26.52;;
7985;SDS011;4038;42.612;23.066;2022-09-09T16:07:12;27.45;;;25.58;;
7985;SDS011;4038;42.612;23.066;2022-09-09T16:09:41;29.10;;;26.80;;
7985;SDS011;4038;42.612;23.066;2022-09-09T16:12:08;27.67;;;25.50;;
7985;SDS011;4038;42.612;23.066;2022-09-09T16:14:38;27.20;;;25.20;;
7985;SDS011;4038;42.612;23.066;2022-09-09T16:17:04;28.02;;;26.02;;
7985;SDS011;4038;42.612;23.066;2022-09-09T16:19:31;28.38;;;26.30;;
7985;SDS011;4038;42.612;23.066;2022-09-09T16:21:57;28.27;;;26.23;;
7985;SDS011;4038;42.612;23.066;2022-09-09T16:24:23;27.88;;;25.83;;
7985;SDS011;4038;42.612;23.066;2022-09-09T16:26:51;28.08;;;26.17;;
7985;SDS011;4038;42.612;23.066;2022-09-09T16:29:19;27.15;;;25.08;;
7985;SDS011;4038;42.612;23.066;2022-09-09T16:31:47;28.38;;;26.17;;
7985;SDS011;4038;42.612;23.066;2022-09-09T16:34:14;26.02;;;24.17;;
7985;SDS011;4038;42.612;23.066;2022-09-09T16:36:41;29.55;;;27.33;;
7985;SDS011;4038;42.612;23.066;2022-09-09T16:39:18;29.55;;;27.20;;
7985;SDS011;4038;42.612;23.066;2022-09-09T16:41:49;28.10;;;26.20;;
7985;SDS011;4038;42.612;23.066;2022-09-09T16:44:15;25.15;;;23.35;;
7985;SDS011;4038;42.612;23.066;2022-09-09T16:46:43;26.52;;;24.67;;
7985;SDS011;4038;42.612;23.066;2022-09-09T16:49:11;26.75;;;24.55;;
7985;SDS011;4038;42.612;23.066;2022-09-09T16:51:41;25.50;;;23.70;;
7985;SDS011;4038;42.612;23.066;2022-09-09T16:54:13;25.75;;;23.75;;
7985;SDS011;4038;42.612;23.066;2022-09-09T16:56:41;28.25;;;26.10;;
7985;SDS011;4038;42.612;23.066;2022-09-09T16:59:12;27.42;;;25.38;;
7985;SDS011;4038;42.612;23.066;2022-09-09T17:01:40;27.27;;;25.10;;
7985;SDS011;4038;42.612;23.066;2022-09-09T17:04:09;26.88;;;24.98;;
7985;SDS011;4038;42.612;23.066;2022-09-09T17:06:47;26.88;;;24.83;;
7985;SDS011;4038;42.612;23.066;2022-09-09T17:09:14;26.67;;;24.67;;
7985;SDS011;4038;42.612;23.066;2022-09-09T17:11:40;27.73;;;25.67;;
7985;SDS011;4038;42.612;23.066;2022-09-09T17:14:13;27.88;;;25.67;;
7985;SDS011;4038;42.612;23.066;2022-09-09T17:16:44;27.63;;;25.33;;